Warning: Attempt to read property "ID" on null in /home/clients/389d046660254b1a70042676601e7fb4/sites/bgs.bac-a-sable.org/wp-includes/post-template.php on line 679

Warning: Attempt to read property "post_type" on null in /home/clients/389d046660254b1a70042676601e7fb4/sites/bgs.bac-a-sable.org/wp-includes/post-template.php on line 680
class="wp-singular -template-default wp-embed-responsive paged-178 wp-theme-bgs">

Index génisses

6 658 animaux

Nom DN ▼ Père Mère GPM P/G CD ISU INEL TP TB Lait CEL i_MA IMS Éleveur CP Ville
VALSEUSE 11-09-2024 SAPHIR JOYEUSE PAYSSLI G 77 141 21 -0.90 -4.00 815 0.30 0.2 0.8 GAEC TALAMANDIER 15500 LASTIC
VICK 11-09-2024 SUPERBOY PERRY NICE GP G 77 140 36 0.40 2.20 677 0.20 0.3 0.5 GAEC CHANGARNIER 21290 MONTMOYEN
VERRINE 11-09-2024 TABEO TEIGNE PHENIX G 77 167 45 0.40 1.00 995 2.10 1.4 2.2 GAEC CHANGARNIER 21290 MONTMOYEN
VELINA 11-09-2024 SAPHIR ORBITE LYNTON AS 142 36 1.10 0.10 676 0.50 0.4 1.2 M MATRAT VICTOR 21400 PRUSLY SUR OURCE
VOLWEN 11-09-2024 TITANIUM RALE SINATRA G 80 158 22 1.00 0.70 302 1.90 0.4 1.2 GAEC VERDOT 21500 SAVOISY
VAYSIA 11-09-2024 OPTIMAL ROXIA O MALLEY G 84 164 41 -1.90 -4.80 1656 0.50 1.4 1.2 GAEC DES MILLE VUES 48340 ST GERMAIN DU TEIL
VERYNIGHT 11-09-2024 SUPERBOY PALMNIGH SASCHA AS 136 26 1.90 1.90 160 0.50 0.7 1.2 GAEC CHANAC 48230 CHANAC
VERVEINE 11-09-2024 TABEO TOURNESOL PISTON AS 141 29 1.50 0.60 442 1.10 0.6 1.0 GAEC DES BOULAINES 48100 GABRIAS
VANETTE 11-09-2024 THOR TOMETTE OXYGENE G 80 170 38 0.60 -0.60 768 0.90 1.5 1.7 GAEC FUNCKEN 52120 LATRECEY ORMOY SUR AUBE
VADUZ 11-09-2024 TORONTO SALINE O MALLEY G 77 145 48 2.00 1.70 741 0.40 0.4 0.5 EARL LEROY 53110 LASSAY LES CHATEAUX
VIOLETTE 11-09-2024 SNOOPY TULIPE PACTOLE G 80 192 65 1.10 2.30 1241 1.40 0.6 0.9 GAEC LES MIMOSAS 85430 AUBIGNY LES CLOUZEAUX
VAIANA 10-09-2024 LBB RALICE 012 NORMAN DELICO G 84 133 15 -1.80 -2.30 780 0.30 1.1 0.9 EARL LILIAN BRESSAND 01270 VILLEMOTIER
VIOLETTE 10-09-2024 TORONTO SUPERATRIX CANYON CAD AS 140 45 0.00 -2.70 1234 0.40 0.1 0.3 EARL DE GILET LE VIEUX 09700 LE VERNET
VALSEUSE 10-09-2024 SUPERBOY SAUGANNE PARELOUP G 80 159 38 1.90 4.90 318 1.50 0.7 0.8 GAEC DU GRIFFOUL 12290 PRADES DE SALARS
VERTE 10-09-2024 SUPERBOY SOURIS PENALTY AS 131 25 0.70 1.60 353 0.70 0.4 0.7 GAEC DES HAUTES CIMES 12600 MUR DE BARREZ
VALSE 10-09-2024 SUPERBOY 8898 TAHIT PATRICE G 80 141 38 1.90 1.00 610 -0.30 0.4 1.1 GAEC LE VILLARET 12150 SEVERAC D'AVEYRON
VITELLE 10-09-2024 SATURNE SAUTERELLE PARMESAN AS 140 31 0.80 0.50 571 0.50 0.6 0.1 GAEC VITAL PICCOLI 15230 PIERREFORT
VALKYRIE 10-09-2024 SATURNE PRISKA LOUSTIC AS 130 28 1.70 1.60 354 0.50 -0.1 0.1 GAEC DES ORMEAUX 21510 MEULSON
VALISE 10-09-2024 SUPERBOY REFLEXION NATUREL AS 131 25 1.00 1.60 413 0.90 -0.1 0.1 SCEA SALOMON 21500 SAVOISY
VITAMINE 10-09-2024 PARADOR MALICIA JEROBOAM AS 140 28 0.20 0.20 611 1.10 -0.4 -0.2 GAEC DE LA FARCE 52200 ST VALLIER SUR MARNE
VERYBELLE 10-09-2024 RULLY 2098TANABE HAMSTER G 81 161 49 1.00 1.10 990 0.70 0.2 0.9 GAEC DE ST LOUIS 31420 ST ANDRE
V21 4537 10-09-2024 OSBOURNE 537 O MALLEY G 84 132 21 3.70 4.50 -384 -1.00 0.8 1.4 EARL L ETANG BLEU 35380 PAIMPONT
VANOISE 10-09-2024 PACTOLE TINQUIETE PHENIX G 84 145 42 -1.00 -1.90 1345 0.80 -0.8 -0.7 GAEC GODINEAU 49120 CHEMILLE EN ANJOU
VIALONGA 10-09-2024 PEPITO RIBEIRA ORIGAN G 77 133 35 0.90 0.40 722 0.70 -0.2 -0.2 GAEC NNTD COISSARD 63420 ROCHE CHARLES
2176 09-09-2024 SINEL AMELYNE NAMUR G 83 136 45 1.90 0.10 745 -0.60 0.1 0.2 ELEVAGE de la Rouge
JLB VERTUS 09-09-2024 LBB RALICE SANTIAGO PACTOLE G 83 139 33 0.70 0.30 695 1.30 1.0 1.2 EARL SAINTE ELISABETH 10250 MUSSY SUR SEINE
VARSOVIE 09-09-2024 PACTOLE 28 8778 MALCOLM G 84 145 40 -1.00 -0.40 1130 1.30 0.0 0.3 GAEC DES CONGERES 12780 VEZINS DE LEVEZOU
VEDETTE 09-09-2024 SAPHIR SELFIE PARMESAN G 77 137 39 -0.40 -0.80 1086 0.30 -0.2 0.4 M GRIMAL JEAN PAUL 15150 GLENAT
09-09-2024 TITANIUM OPTIMAL AS 158 29 1.70 1.70 327 1.60 0.7 1.1 GAEC SUREAU CLERGET 21460 COURCELLES FREMOY
VISITEUSE 09-09-2024 TITANIUM 064 SOLANG OPTIMAL G 77 139 16 -0.50 -2.30 580 1.90 0.8 0.6 GAEC CHEVALLIER DE MAUVILLY 21510 MAUVILLY